KLSF/LSF METAR and TAF weather

Enter ICAO airport designator
Station Type Date Time Source
KLSF METAR 2020/04/09 20:56 UTC NOAA

KLSF 092056Z AUTO 26009KT 10SM CLR 29/18 A2974 RMK AO2 SLP074 T02880182 57017 $


Station Type Date Time Source
KLSF Decoded METAR 2020/04/09 20:56 UTC NOAA

Fort Benning, GA, United States (KLSF) 32-20N 084-50W 130M
Apr 09, 2020 - 04:56 PM EDT / 2020.04.09 2056 UTC
Wind: from the W (260 degrees) at 10 MPH (9 KT):0
Visibility: 10 mile(s):0
Sky conditions: clear
Temperature: 83.8 F (28.8 C)
Dew Point: 64.8 F (18.2 C)
Relative Humidity: 52%
Pressure (altimeter): 29.74 in. Hg (1007 hPa)
Pressure tendency: 0.05 inches (1.7 hPa) lower than three hours ago
ob: KLSF 092056Z AUTO 26009KT 10SM CLR 29/18 A2974 RMK AO2 SLP074 T02880182 57017
cycle: 21

Station Type Date Time Source
KLSF TAF 2020/04/09 17:09 UTC NOAA

TAF KLSF 091700Z 0917/1023 29010G15KT 9999 FEW020 BKN045 QNH2973INS
BECMG 0922/0923 31006KT 9999 FEW150 BKN200 QNH2973INS
BECMG 1008/1009 33009KT 9000 -SHRA BKN060 QNH2987INS
BECMG 1013/1014 32012G18KT 9999 NSW FEW250 QNH2996INS TX28/0920Z TN13/1014Z

Example: see airport list